Time;durP1;ratioP1;P1;durP2;ratioP2;P2;SDS_P1;SDS_P2;PMS_P1;PMS_P2;Temp;Humidity;BMP_temperature;BMP_pressure;BME280_temperature;BME280_humidity;BME280_pressure;Samples;Min_cycle;Max_cycle;Signal;HPM_P1;HPM_P2
2023/06/06 00:00:10;;;;;;;;;;;;;;;-144.99;87.04;52179.06;4999633;28;19966;-70
2023/06/06 00:02:40;;;;;;;;;;;;;;;-144.99;88.72;52219.81;4988808;28;20052;-70
2023/06/06 00:05:08;;;;;;;;;;;;;;;-144.99;87.91;52191.28;4991705;28;20077;-70
2023/06/06 00:07:36;;;;;;;;;;;;;;;-144.99;89.83;52195.34;5001639;28;20327;-71
2023/06/06 00:10:03;;;;;;;;;;;;;;;-144.99;90.52;52187.19;4994161;28;19947;-70
2023/06/06 00:12:32;;;;;;;;;;;;;;;-144.99;89.86;52195.34;5003156;28;19948;-69
2023/06/06 00:14:59;;;;;;;;;;;;;;;-144.99;88.31;52195.34;4989093;28;20213;-69
2023/06/06 00:17:26;;;;;;;;;;;;;;;-144.99;87.99;52179.06;4990027;28;19946;-69
2023/06/06 00:19:53;;;;;;;;;;;;;;;-144.99;87.88;52195.34;4998284;28;20509;-70
2023/06/06 00:22:22;;;;;;;;;;;;;;;-144.99;88.07;52179.06;5006128;28;19942;-69
2023/06/06 00:24:50;;;;;;;;;;;;;;;-144.99;88.39;52207.59;4993621;28;19972;-71
2023/06/06 00:27:16;;;;;;;;;;;;;;;-144.99;88.24;52203.50;4991732;28;19957;-68
2023/06/06 00:29:48;;;;;;;;;;;;;;;-144.99;87.97;52199.44;4994228;28;19941;-70
2023/06/06 00:32:14;;;;;;;;;;;;;;;-144.99;88.00;52193.31;5002673;28;20401;-69
2023/06/06 00:34:41;;;;;;;;;;;;;;;-144.99;88.09;52195.34;4994407;28;19949;-69
2023/06/06 00:37:07;;;;;;;;;;;;;;;-144.99;88.35;52199.44;4987383;28;19967;-69
2023/06/06 00:39:34;;;;;;;;;;;;;;;-144.99;88.42;52219.81;4992339;28;19941;-68
2023/06/06 00:42:02;;;;;;;;;;;;;;;-144.99;88.49;52197.41;5004142;28;19947;-69
2023/06/06 00:44:28;;;;;;;;;;;;;;;-144.99;88.60;52199.44;4995748;28;19960;-70
2023/06/06 00:46:55;;;;;;;;;;;;;;;-144.99;89.10;52193.31;4987928;28;19962;-70
2023/06/06 00:49:22;;;;;;;;;;;;;;;-144.99;89.14;52199.44;4991259;28;20618;-69
2023/06/06 00:51:49;;;;;;;;;;;;;;;-144.99;89.20;52179.06;4994601;28;20052;-70
2023/06/06 00:54:17;;;;;;;;;;;;;;;-144.99;89.52;52193.31;4999090;28;20009;-70
2023/06/06 00:56:44;;;;;;;;;;;;;;;-144.99;89.51;52179.06;4990799;28;20053;-69
2023/06/06 00:59:13;;;;;;;;;;;;;;;-144.99;89.88;52207.59;4987388;28;20024;-70
2023/06/06 01:01:41;;;;;;;;;;;;;;;-144.99;89.95;52183.13;4988058;28;19956;-71
2023/06/06 01:04:08;;;;;;;;;;;;;;;-144.99;90.23;52191.28;4986964;28;20487;-70
2023/06/06 01:06:37;;;;;;;;;;;;;;;-144.99;90.37;52207.59;4989965;28;19988;-70
2023/06/06 01:09:05;;;;;;;;;;;;;;;-144.99;90.12;52166.81;4991838;28;20492;-71
2023/06/06 01:11:36;;;;;;;;;;;;;;;-144.99;91.19;52203.50;4992928;28;19972;-70
2023/06/06 01:14:07;;;;;;;;;;;;;;;-144.99;90.44;52219.81;4986186;28;20046;-71
2023/06/06 01:16:35;;;;;;;;;;;;;;;-144.99;90.60;52179.06;4986591;28;19987;-69
2023/06/06 01:19:04;;;;;;;;;;;;;;;-144.99;90.68;52191.28;4999275;28;19957;-70
2023/06/06 01:21:36;;;;;;;;;;;;;;;-144.99;90.58;52170.91;4993902;28;19964;-69
2023/06/06 01:24:04;;;;;;;;;;;;;;;-144.99;91.77;52232.03;4986444;28;19950;-70
2023/06/06 01:26:30;;;;;;;;;;;;;;;-144.99;92.04;52211.66;4988714;28;19960;-72
2023/06/06 01:28:57;;;;;;;;;;;;;;;-144.99;93.70;52252.44;4994648;28;19954;-72
2023/06/06 01:31:25;;;;;;;;;;;;;;;-144.99;92.44;52219.81;4988712;28;19944;-72
2023/06/06 01:33:55;;;;;;;;;;;;;;;-144.99;92.75;52219.81;4985864;28;20002;-71
2023/06/06 01:36:24;;;;;;;;;;;;;;;-144.99;93.09;52195.34;4987218;28;19965;-72
2023/06/06 01:39:00;;;;;;;;;;;;;;;-144.99;92.92;52207.59;4987438;28;19945;-72
2023/06/06 01:41:29;;;;;;;;;;;;;;;-144.99;93.91;52209.63;4999356;28;19964;-72
2023/06/06 01:43:57;;;;;;;;;;;;;;;-144.99;93.41;52185.16;4988156;28;19947;-71
2023/06/06 01:46:24;;;;;;;;;;;;;;;-144.99;93.37;52195.34;4987780;28;19984;-71
2023/06/06 01:48:51;;;;;;;;;;;;;;;-144.99;93.68;52217.78;4991564;28;19951;-71
2023/06/06 01:51:18;;;;;;;;;;;;;;;-144.99;93.86;52211.66;4998669;28;19944;-70
2023/06/06 01:53:45;;;;;;;;;;;;;;;-144.99;93.40;52158.66;4993550;28;19941;-70
2023/06/06 01:56:13;;;;;;;;;;;;;;;-144.99;93.22;52207.59;4989001;28;19982;-70
2023/06/06 01:58:40;;;;;;;;;;;;;;;-144.99;93.26;52248.34;4986884;28;20039;-70
2023/06/06 02:01:08;;;;;;;;;;;;;;;-144.99;93.19;52195.34;4986192;28;19967;-70
2023/06/06 02:03:35;;;;;;;;;;;;;;;-144.99;92.95;52191.28;4988816;28;19938;-69
2023/06/06 02:06:02;;;;;;;;;;;;;;;-144.99;93.28;52209.63;4988218;28;19959;-70
2023/06/06 02:08:29;;;;;;;;;;;;;;;-144.99;93.09;52223.88;4995086;28;19974;-71
2023/06/06 02:10:56;;;;;;;;;;;;;;;-144.99;93.49;52195.34;4993419;28;19941;-70
2023/06/06 02:13:25;;;;;;;;;;;;;;;-144.99;93.74;52207.59;4988772;28;20345;-71
2023/06/06 02:15:51;;;;;;;;;;;;;;;-144.99;93.96;52207.59;4988268;28;19978;-70
2023/06/06 02:18:18;;;;;;;;;;;;;;;-144.99;93.88;52215.75;4994848;28;19949;-71
2023/06/06 02:20:45;;;;;;;;;;;;;;;-144.99;94.03;52248.34;4993486;28;19961;-70
2023/06/06 02:23:11;;;;;;;;;;;;;;;-144.99;95.35;52227.97;4991553;28;20311;-70
2023/06/06 02:25:38;;;;;;;;;;;;;;;-144.99;95.21;52207.59;4988590;28;20369;-71
2023/06/06 02:28:05;;;;;;;;;;;;;;;-144.99;96.31;52181.09;4990648;28;20404;-70
2023/06/06 02:30:33;;;;;;;;;;;;;;;-144.99;95.32;52246.31;4993329;28;20442;-70
2023/06/06 02:33:00;;;;;;;;;;;;;;;-144.99;94.54;52256.50;4998671;28;20172;-71
2023/06/06 02:38:09;;;;;;;;;;;;;;;-144.99;94.63;52197.41;5004400;28;19980;-74
2023/06/06 02:40:36;;;;;;;;;;;;;;;-144.99;94.89;52195.34;5006423;28;20283;-70
2023/06/06 02:43:02;;;;;;;;;;;;;;;-144.99;94.84;52203.50;4992746;28;19948;-74
2023/06/06 02:45:30;;;;;;;;;;;;;;;-144.99;95.07;52227.97;5004861;28;20394;-71
2023/06/06 02:47:58;;;;;;;;;;;;;;;-144.99;94.80;52244.28;5005657;28;20303;-69
2023/06/06 02:50:28;;;;;;;;;;;;;;;-144.99;94.68;52217.78;5004211;28;20155;-70
2023/06/06 02:52:55;;;;;;;;;;;;;;;-144.99;94.91;52232.03;5004525;28;20076;-70
2023/06/06 02:55:22;;;;;;;;;;;;;;;-144.99;95.10;52211.66;5004622;28;20021;-69
2023/06/06 02:57:51;;;;;;;;;;;;;;;-144.99;95.08;52207.59;5005855;28;20395;-69
2023/06/06 03:00:17;;;;;;;;;;;;;;;-144.99;95.34;52195.34;5003000;28;19967;-69
2023/06/06 03:02:44;;;;;;;;;;;;;;;-144.99;95.42;52236.13;4998310;28;19945;-69
2023/06/06 03:05:13;;;;;;;;;;;;;;;-144.99;95.60;52236.13;5005977;28;20285;-69
2023/06/06 03:07:40;;;;;;;;;;;;;;;-144.99;95.27;52234.09;5005615;28;19941;-68
2023/06/06 03:10:08;;;;;;;;;;;;;;;-144.99;95.37;52221.84;5004661;28;20198;-69
2023/06/06 03:12:34;;;;;;;;;;;;;;;-144.99;97.77;52276.88;5005332;28;19943;-68
2023/06/06 03:15:01;;;;;;;;;;;;;;;-144.99;96.24;52230.00;5009156;28;19973;-68
2023/06/06 03:17:27;;;;;;;;;;;;;;;-144.99;97.48;52246.31;5005499;28;19954;-68
2023/06/06 03:19:54;;;;;;;;;;;;;;;-144.99;95.55;52240.19;5004556;28;19964;-70
2023/06/06 03:22:22;;;;;;;;;;;;;;;-144.99;95.35;52199.44;5004305;28;20284;-67
2023/06/06 03:24:49;;;;;;;;;;;;;;;-144.99;95.27;52227.97;5004558;28;20311;-67
2023/06/06 03:27:16;;;;;;;;;;;;;;;-144.99;95.40;52240.19;5009705;28;20058;-67
2023/06/06 03:29:42;;;;;;;;;;;;;;;-144.99;94.98;52232.03;5003412;28;19958;-70
2023/06/06 03:32:10;;;;;;;;;;;;;;;-144.99;95.28;52219.81;5005327;28;20041;-71
2023/06/06 03:34:36;;;;;;;;;;;;;;;-144.99;97.85;52248.34;5003339;28;20406;-66
2023/06/06 03:37:03;;;;;;;;;;;;;;;-144.99;96.14;52199.44;5005231;28;20054;-67
2023/06/06 03:39:31;;;;;;;;;;;;;;;-144.99;95.65;52211.66;5003784;28;20034;-69
2023/06/06 03:41:58;;;;;;;;;;;;;;;-144.99;95.21;52187.19;5005421;28;19956;-68
2023/06/06 03:44:24;;;;;;;;;;;;;;;-144.99;95.29;52211.66;4999896;28;19939;-68
2023/06/06 03:46:51;;;;;;;;;;;;;;;-144.99;95.20;52195.34;5005446;28;20245;-71
2023/06/06 03:49:18;;;;;;;;;;;;;;;-144.99;95.14;52205.53;5012295;28;20334;-70
2023/06/06 03:51:44;;;;;;;;;;;;;;;-144.99;94.98;52219.81;5005236;28;19941;-70
2023/06/06 03:54:11;;;;;;;;;;;;;;;-144.99;95.18;52211.66;5002128;28;19943;-71
2023/06/06 03:56:40;;;;;;;;;;;;;;;-144.99;95.02;52187.19;5013587;28;19942;-71
2023/06/06 03:59:11;;;;;;;;;;;;;;;-144.99;95.24;52183.13;5002939;28;20384;-71
2023/06/06 04:01:38;;;;;;;;;;;;;;;-144.99;94.93;52215.75;5003641;28;19954;-71
2023/06/06 04:04:04;;;;;;;;;;;;;;;-144.99;94.69;52223.88;5004475;28;20405;-71
2023/06/06 04:06:31;;;;;;;;;;;;;;;-144.99;94.48;52207.59;5000990;28;19950;-70
2023/06/06 04:08:58;;;;;;;;;;;;;;;-144.99;94.36;52207.59;5005218;28;20317;-70
2023/06/06 04:11:25;;;;;;;;;;;;;;;-144.99;94.30;52199.44;5004829;28;19943;-65
2023/06/06 04:13:53;;;;;;;;;;;;;;;-144.99;94.90;52232.03;5008121;28;19980;-64
2023/06/06 04:16:20;;;;;;;;;;;;;;;-144.99;95.41;52207.59;5008277;28;19948;-65
2023/06/06 04:18:47;;;;;;;;;;;;;;;-144.99;95.00;52225.94;5010675;28;19963;-66
2023/06/06 04:21:14;;;;;;;;;;;;;;;-144.99;94.87;52223.88;5004882;28;19968;-67
2023/06/06 04:23:40;;;;;;;;;;;;;;;-144.99;94.69;52219.81;4998810;28;19947;-64
2023/06/06 04:26:10;;;;;;;;;;;;;;;-144.99;93.68;52195.34;5004146;28;19971;-66
2023/06/06 04:28:37;;;;;;;;;;;;;;;-144.99;93.02;52191.28;5007619;28;20014;-69
2023/06/06 04:31:07;;;;;;;;;;;;;;;-144.99;92.70;52207.59;5005242;28;19960;-69
2023/06/06 04:33:34;;;;;;;;;;;;;;;-144.99;92.64;52179.06;4998521;28;19951;-69
2023/06/06 04:36:01;;;;;;;;;;;;;;;-144.99;92.50;52209.63;5008706;28;19964;-68
2023/06/06 04:38:29;;;;;;;;;;;;;;;-144.99;92.54;52170.91;5007861;28;20015;-67
2023/06/06 04:40:57;;;;;;;;;;;;;;;-144.99;91.84;52207.59;5009292;28;20362;-67
2023/06/06 04:43:25;;;;;;;;;;;;;;;-144.99;91.70;52170.91;5007041;28;19953;-67
2023/06/06 04:45:53;;;;;;;;;;;;;;;-144.99;91.35;52207.59;5008083;28;19954;-69
2023/06/06 04:48:25;;;;;;;;;;;;;;;-144.99;91.00;52160.72;5008650;28;20000;-68
2023/06/06 04:50:52;;;;;;;;;;;;;;;-144.99;91.37;52177.00;5009182;28;19957;-67
2023/06/06 04:53:19;;;;;;;;;;;;;;;-144.99;91.32;52187.19;5007022;28;20019;-67
2023/06/06 04:55:46;;;;;;;;;;;;;;;-144.99;91.26;52154.59;5007740;28;19938;-67
2023/06/06 04:58:14;;;;;;;;;;;;;;;-144.99;91.26;52142.38;5006383;28;19940;-67
2023/06/06 05:00:45;;;;;;;;;;;;;;;-144.99;90.31;52170.91;5005120;28;20034;-68
2023/06/06 05:03:11;;;;;;;;;;;;;;;-144.99;90.08;52195.34;5003150;28;19961;-68
2023/06/06 05:05:39;;;;;;;;;;;;;;;-144.99;89.63;52166.81;5007562;28;19948;-68
2023/06/06 05:08:06;;;;;;;;;;;;;;;-144.99;89.39;52164.78;5007630;28;19951;-61
2023/06/06 05:10:33;;;;;;;;;;;;;;;-144.99;89.32;52142.38;5008812;28;19942;-60
2023/06/06 05:12:59;;;;;;;;;;;;;;;-144.99;89.44;52168.84;5002166;28;19941;-61
2023/06/06 05:15:26;;;;;;;;;;;;;;;-144.99;89.51;52174.97;5007646;28;20019;-60
2023/06/06 05:17:56;;;;;;;;;;;;;;;-144.99;89.62;52162.75;5009821;28;19943;-60
2023/06/06 05:20:23;;;;;;;;;;;;;;;-144.99;89.25;52179.06;5012345;28;19995;-62
2023/06/06 05:22:51;;;;;;;;;;;;;;;-144.99;88.75;52146.44;4310191;28;10000788;-60
2023/06/06 05:25:18;;;;;;;;;;;;;;;-144.99;88.30;52134.22;5001488;28;20138;-60
2023/06/06 05:27:46;;;;;;;;;;;;;;;-144.99;87.62;52207.59;5008213;28;19940;-60
2023/06/06 05:30:13;;;;;;;;;;;;;;;-144.99;87.36;52146.44;5002720;28;20344;-60
2023/06/06 05:32:40;;;;;;;;;;;;;;;-144.99;86.93;52146.44;5005156;28;20259;-60
2023/06/06 05:35:07;;;;;;;;;;;;;;;-144.99;86.28;52146.44;5002435;28;20044;-62
2023/06/06 05:37:34;;;;;;;;;;;;;;;-144.99;86.00;52146.44;5000375;28;20416;-61
2023/06/06 05:40:02;;;;;;;;;;;;;;;-144.99;85.42;52126.06;5008010;28;19966;-62
2023/06/06 05:42:29;;;;;;;;;;;;;;;-144.99;85.02;52142.38;5004215;28;19959;-62
2023/06/06 05:44:56;;;;;;;;;;;;;;;-144.99;85.08;52134.22;5002006;28;20200;-61
2023/06/06 05:47:22;;;;;;;;;;;;;;;-144.99;85.10;52146.44;5002241;28;19936;-61
2023/06/06 05:49:49;;;;;;;;;;;;;;;-144.99;85.16;52148.47;5003827;28;19964;-62
2023/06/06 05:52:16;;;;;;;;;;;;;;;-144.99;84.91;52140.31;5003910;28;19951;-62
2023/06/06 05:54:42;;;;;;;;;;;;;;;-144.99;84.79;52150.53;5003526;28;20038;-62
2023/06/06 05:57:20;;;;;;;;;;;;;;;-144.99;84.61;52146.44;5006228;28;20430;-62
2023/06/06 05:59:47;;;;;;;;;;;;;;;-144.99;84.43;52119.94;5001706;28;20018;-61
2023/06/06 06:02:14;;;;;;;;;;;;;;;-144.99;84.09;52117.91;5015685;28;20388;-62
2023/06/06 06:04:42;;;;;;;;;;;;;;;-144.99;83.50;52142.38;5009165;28;19948;-62
2023/06/06 06:07:09;;;;;;;;;;;;;;;-144.99;83.60;52146.44;5007857;28;19945;-61
2023/06/06 06:09:36;;;;;;;;;;;;;;;-144.99;82.76;52158.66;5007469;28;19964;-62
2023/06/06 06:12:03;;;;;;;;;;;;;;;-144.99;82.61;52109.75;5009603;28;19992;-62
2023/06/06 06:14:31;;;;;;;;;;;;;;;-144.99;82.20;52111.78;5012506;28;19939;-62
2023/06/06 06:16:57;;;;;;;;;;;;;;;-144.99;81.93;52134.22;5007862;28;19939;-62
2023/06/06 06:19:24;;;;;;;;;;;;;;;-144.99;81.65;52111.78;5007506;28;20183;-62
2023/06/06 06:21:50;;;;;;;;;;;;;;;-144.99;81.42;52113.84;5008487;28;19960;-62
2023/06/06 06:24:17;;;;;;;;;;;;;;;-144.99;81.07;52117.91;5007657;28;20459;-61
2023/06/06 06:26:44;;;;;;;;;;;;;;;-144.99;81.20;52113.84;5009224;28;20291;-62
2023/06/06 06:29:10;;;;;;;;;;;;;;;-144.99;81.00;52146.44;5006754;28;19961;-61
2023/06/06 06:31:39;;;;;;;;;;;;;;;-144.99;81.11;52105.69;5007742;28;19950;-60
2023/06/06 06:34:05;;;;;;;;;;;;;;;-144.99;80.66;52081.22;5008113;28;19945;-61
2023/06/06 06:36:32;;;;;;;;;;;;;;;-144.99;80.52;52107.72;5007887;28;19951;-61
2023/06/06 06:38:58;;;;;;;;;;;;;;;-144.99;80.02;52134.22;5000333;28;19970;-63
2023/06/06 06:41:26;;;;;;;;;;;;;;;-144.99;80.04;52121.97;5003165;28;19945;-63
2023/06/06 06:43:52;;;;;;;;;;;;;;;-144.99;80.17;52109.75;5001824;28;20086;-62
2023/06/06 06:46:19;;;;;;;;;;;;;;;-144.99;80.11;52113.84;5002922;28;19951;-62
2023/06/06 06:48:50;;;;;;;;;;;;;;;-144.99;79.87;52121.97;5001550;28;19963;-61
2023/06/06 06:51:19;;;;;;;;;;;;;;;-144.99;80.46;52105.69;5002208;28;20263;-62
2023/06/06 06:53:45;;;;;;;;;;;;;;;-144.99;80.78;52109.75;5002392;28;20390;-63
2023/06/06 06:56:15;;;;;;;;;;;;;;;-144.99;81.35;52101.59;5002318;28;19945;-63
2023/06/06 06:58:42;;;;;;;;;;;;;;;-144.99;81.14;52113.84;4998379;28;19967;-63
2023/06/06 07:01:09;;;;;;;;;;;;;;;-144.99;80.71;52089.38;5003241;28;19943;-63
2023/06/06 07:03:35;;;;;;;;;;;;;;;-144.99;79.89;52089.38;4656727;28;10000418;-63
2023/06/06 07:06:04;;;;;;;;;;;;;;;-144.99;79.25;52109.75;5003251;28;19987;-63
2023/06/06 07:08:31;;;;;;;;;;;;;;;-144.99;78.89;52099.56;4999405;28;19957;-63
2023/06/06 07:10:57;;;;;;;;;;;;;;;-144.99;78.18;52117.91;5000808;28;20028;-63
2023/06/06 07:13:24;;;;;;;;;;;;;;;-144.99;77.85;52097.53;5002988;28;19966;-63
2023/06/06 07:15:51;;;;;;;;;;;;;;;-144.99;77.03;52069.00;5006212;28;19944;-63
2023/06/06 07:18:17;;;;;;;;;;;;;;;-144.99;76.57;52089.38;5000325;28;20312;-63
2023/06/06 07:20:45;;;;;;;;;;;;;;;-144.99;76.55;52097.53;5002771;28;19984;-63
2023/06/06 07:23:13;;;;;;;;;;;;;;;-144.99;76.02;52087.34;5001039;28;20064;-61
2023/06/06 07:25:40;;;;;;;;;;;;;;;-144.99;75.60;52077.16;5002730;28;19953;-62
2023/06/06 07:28:07;;;;;;;;;;;;;;;-144.99;75.54;52079.19;5003247;28;20463;-62
2023/06/06 07:30:34;;;;;;;;;;;;;;;-144.99;75.34;52081.22;5000883;28;20445;-61
2023/06/06 07:33:01;;;;;;;;;;;;;;;-144.99;75.26;52093.44;5002278;28;20086;-62
2023/06/06 07:35:32;;;;;;;;;;;;;;;-144.99;74.95;52099.56;5003445;28;19943;-62
2023/06/06 07:38:00;;;;;;;;;;;;;;;-144.99;74.70;52052.69;5003654;28;19973;-62
2023/06/06 07:40:28;;;;;;;;;;;;;;;-144.99;74.01;52083.25;5004013;28;19963;-62
2023/06/06 07:42:57;;;;;;;;;;;;;;;-144.99;73.81;52101.59;5003954;28;19959;-62
2023/06/06 07:45:28;;;;;;;;;;;;;;;-144.99;72.99;52060.84;5009105;28;19943;-62
2023/06/06 07:47:58;;;;;;;;;;;;;;;-144.99;72.65;52093.44;5007807;28;19945;-62
2023/06/06 07:50:25;;;;;;;;;;;;;;;-144.99;72.79;52066.97;5007269;28;20349;-63
2023/06/06 07:52:52;;;;;;;;;;;;;;;-144.99;72.48;52064.91;5014059;28;19940;-62
2023/06/06 07:55:20;;;;;;;;;;;;;;;-144.99;72.40;52040.47;5011933;28;19969;-62
2023/06/06 07:57:50;;;;;;;;;;;;;;;-144.99;71.45;52064.91;5005370;28;20043;-62
2023/06/06 08:00:17;;;;;;;;;;;;;;;-144.99;70.88;52020.09;5007566;28;19961;-62
2023/06/06 08:02:48;;;;;;;;;;;;;;;-144.99;70.22;52060.84;5000709;28;19972;-62
2023/06/06 08:05:16;;;;;;;;;;;;;;;-144.99;70.17;52056.78;5010775;28;19956;-61
2023/06/06 08:07:43;;;;;;;;;;;;;;;-144.99;69.31;52028.22;5010216;28;19946;-63
2023/06/06 08:10:10;;;;;;;;;;;;;;;-144.99;70.73;52064.91;5005428;28;20395;-62
2023/06/06 08:12:37;;;;;;;;;;;;;;;-144.99;70.33;52060.84;5005978;28;19943;-62
2023/06/06 08:15:06;;;;;;;;;;;;;;;-144.99;70.10;52064.91;5005424;28;19944;-62
2023/06/06 08:17:32;;;;;;;;;;;;;;;-144.99;69.77;52060.84;5001552;28;20244;-62
2023/06/06 08:19:59;;;;;;;;;;;;;;;-144.99;69.96;52060.84;5005873;28;20336;-62
2023/06/06 08:22:29;;;;;;;;;;;;;;;-144.99;69.63;52040.47;5009109;28;20247;-62
2023/06/06 08:24:55;;;;;;;;;;;;;;;-144.99;68.80;52036.38;5003971;28;20035;-62
2023/06/06 08:27:22;;;;;;;;;;;;;;;-144.99;68.34;52060.84;5009989;28;19970;-61
2023/06/06 08:29:49;;;;;;;;;;;;;;;-144.99;68.51;52032.31;5002150;28;20042;-62
2023/06/06 08:32:17;;;;;;;;;;;;;;;-144.99;67.88;52007.84;5006478;28;19947;-62
2023/06/06 08:34:43;;;;;;;;;;;;;;;-144.99;67.62;52036.38;5003793;28;20431;-62
2023/06/06 08:37:10;;;;;;;;;;;;;;;-144.99;67.41;52020.09;5006762;28;20462;-62
2023/06/06 08:39:37;;;;;;;;;;;;;;;-144.99;66.80;52058.81;5005984;28;20475;-62
2023/06/06 08:42:04;;;;;;;;;;;;;;;-144.99;67.29;52024.16;5006097;28;19950;-62
2023/06/06 08:44:31;;;;;;;;;;;;;;;-144.99;67.50;52040.47;5002744;28;19943;-62
2023/06/06 08:46:59;;;;;;;;;;;;;;;-144.99;66.57;52036.38;5005576;28;19943;-62
2023/06/06 08:49:29;;;;;;;;;;;;;;;-144.99;66.23;52056.78;5004988;28;19962;-63
2023/06/06 08:51:57;;;;;;;;;;;;;;;-144.99;65.93;52026.19;5006231;28;20053;-63
2023/06/06 08:54:25;;;;;;;;;;;;;;;-144.99;65.39;51995.63;5003342;28;19949;-62
2023/06/06 08:56:53;;;;;;;;;;;;;;;-144.99;65.79;52003.78;5004742;28;19944;-62
2023/06/06 08:59:21;;;;;;;;;;;;;;;-144.99;65.30;52024.16;5005331;28;20046;-62
2023/06/06 09:01:50;;;;;;;;;;;;;;;-144.99;65.36;51993.59;5000709;28;19947;-63
2023/06/06 09:04:18;;;;;;;;;;;;;;;-144.99;64.88;52036.38;5005394;28;20013;-63
2023/06/06 09:06:46;;;;;;;;;;;;;;;-144.99;63.76;51977.28;5003941;28;19934;-61
2023/06/06 09:09:14;;;;;;;;;;;;;;;-144.99;64.02;52030.28;5005198;28;19999;-62
2023/06/06 09:11:41;;;;;;;;;;;;;;;-144.99;63.79;51995.63;5005671;28;19941;-61
2023/06/06 09:14:07;;;;;;;;;;;;;;;-144.99;62.94;52003.78;5008828;28;20018;-61
2023/06/06 09:16:34;;;;;;;;;;;;;;;-144.99;62.85;52016.00;5002724;28;19943;-62
2023/06/06 09:19:02;;;;;;;;;;;;;;;-144.99;62.85;52040.47;5004375;28;20024;-62
2023/06/06 09:21:29;;;;;;;;;;;;;;;-144.99;62.67;51997.66;5005489;28;19987;-62
2023/06/06 09:23:57;;;;;;;;;;;;;;;-144.99;62.57;51999.69;5004865;28;19999;-62
2023/06/06 09:26:25;;;;;;;;;;;;;;;-144.99;62.23;51999.69;5002348;28;19976;-62
2023/06/06 09:28:52;;;;;;;;;;;;;;;-144.99;61.85;51969.13;5007364;28;19981;-62
2023/06/06 09:31:26;;;;;;;;;;;;;;;-144.99;61.86;51999.69;5002485;28;19946;-62
2023/06/06 09:33:53;;;;;;;;;;;;;;;-144.99;61.50;51956.91;5014610;28;20796;-63
2023/06/06 09:36:23;;;;;;;;;;;;;;;-144.99;61.74;51995.63;5007205;28;19957;-63
2023/06/06 09:38:50;;;;;;;;;;;;;;;-144.99;62.09;51997.66;5004283;28;19937;-63
2023/06/06 09:41:18;;;;;;;;;;;;;;;-144.99;62.15;51975.25;5004629;28;20016;-63
2023/06/06 09:43:45;;;;;;;;;;;;;;;-144.99;62.23;51975.25;5002646;28;20044;-63
2023/06/06 09:46:15;;;;;;;;;;;;;;;-144.99;61.66;51963.03;5005106;28;19944;-63
2023/06/06 09:48:42;;;;;;;;;;;;;;;-144.99;61.02;51969.13;5003333;28;19952;-63
2023/06/06 09:51:10;;;;;;;;;;;;;;;-144.99;60.55;51977.28;5003367;28;19949;-62
2023/06/06 09:53:37;;;;;;;;;;;;;;;-144.99;60.52;51997.66;5006369;28;19943;-63
2023/06/06 09:56:04;;;;;;;;;;;;;;;-144.99;60.86;51942.63;5003523;28;20002;-63
2023/06/06 09:58:33;;;;;;;;;;;;;;;-144.99;60.72;51971.16;5003885;28;19955;-62
2023/06/06 10:01:01;;;;;;;;;;;;;;;-144.99;60.70;51958.94;5009482;28;19942;-63
2023/06/06 10:03:30;;;;;;;;;;;;;;;-144.99;60.33;51967.09;5004955;28;20225;-62
2023/06/06 10:05:57;;;;;;;;;;;;;;;-144.99;60.23;51979.31;5006353;28;19953;-62
2023/06/06 10:08:25;;;;;;;;;;;;;;;-144.99;60.19;51950.78;5009628;28;19966;-62
2023/06/06 10:10:51;;;;;;;;;;;;;;;-144.99;60.05;51956.91;5006353;28;19962;-63
2023/06/06 10:13:19;;;;;;;;;;;;;;;-144.99;60.17;51930.41;5005885;28;20159;-63
2023/06/06 10:15:47;;;;;;;;;;;;;;;-144.99;59.51;51893.72;5011682;28;19929;-63
2023/06/06 10:18:14;;;;;;;;;;;;;;;-144.99;58.77;51934.50;5004498;28;20236;-62
2023/06/06 10:20:41;;;;;;;;;;;;;;;-144.99;58.92;51946.72;5012816;28;19992;-63
2023/06/06 10:23:07;;;;;;;;;;;;;;;-144.99;58.76;51905.97;5002873;28;19978;-63
2023/06/06 10:25:35;;;;;;;;;;;;;;;-144.99;58.91;51942.63;5008779;28;19949;-62
2023/06/06 10:28:07;;;;;;;;;;;;;;;-144.99;58.75;51938.56;5006655;28;19947;-63
2023/06/06 10:30:37;;;;;;;;;;;;;;;-144.99;58.62;51922.25;4997676;28;19946;-63
2023/06/06 10:33:13;;;;;;;;;;;;;;;-144.99;58.11;51916.16;5002864;28;19943;-64
2023/06/06 10:35:40;;;;;;;;;;;;;;;-144.99;58.28;51877.44;5002369;28;19953;-62
2023/06/06 10:38:08;;;;;;;;;;;;;;;-144.99;57.66;51897.81;5001282;28;19947;-62
2023/06/06 10:40:42;;;;;;;;;;;;;;;-144.99;57.88;51885.56;5002567;28;19943;-62
2023/06/06 10:43:08;;;;;;;;;;;;;;;-144.99;58.79;51922.25;4999066;28;19964;-63
2023/06/06 10:45:42;;;;;;;;;;;;;;;-144.99;58.27;51889.66;5001726;28;19950;-63
2023/06/06 10:48:10;;;;;;;;;;;;;;;-144.99;57.63;51869.28;5001680;28;19956;-63
2023/06/06 10:50:37;;;;;;;;;;;;;;;-144.99;57.22;51875.38;4993996;28;19969;-63
2023/06/06 10:53:06;;;;;;;;;;;;;;;-144.99;57.17;51875.38;4994891;28;20350;-63
2023/06/06 10:55:45;;;;;;;;;;;;;;;-144.99;57.03;51855.00;4998379;28;20200;-62
2023/06/06 10:58:19;;;;;;;;;;;;;;;-144.99;57.23;51869.28;4999633;28;20001;-63
2023/06/06 11:00:46;;;;;;;;;;;;;;;-144.99;57.89;51895.75;5001538;28;19952;-63
2023/06/06 11:03:15;;;;;;;;;;;;;;;-144.99;57.77;51889.66;5001748;28;20089;-63
2023/06/06 11:06:00;;;;;;;;;;;;;;;-144.99;58.54;51916.16;5011437;28;20002;-63
2023/06/06 11:08:32;;;;;;;;;;;;;;;-144.99;58.56;51938.56;5005782;28;20280;-62
2023/06/06 11:11:13;;;;;;;;;;;;;;;-144.99;58.19;51938.56;5002082;28;19951;-62
2023/06/06 11:13:49;;;;;;;;;;;;;;;-144.99;57.80;51924.28;4999688;28;20043;-63
2023/06/06 11:16:15;;;;;;;;;;;;;;;-144.99;57.56;51869.28;4999630;28;19974;-63
2023/06/06 11:18:44;;;;;;;;;;;;;;;-144.99;56.76;51881.50;5000151;28;20447;-63
2023/06/06 11:21:12;;;;;;;;;;;;;;;-144.99;57.10;51952.81;5001027;28;19968;-63
2023/06/06 11:23:39;;;;;;;;;;;;;;;-144.99;57.87;51873.34;5002698;28;20421;-63
2023/06/06 11:26:08;;;;;;;;;;;;;;;-144.99;58.40;51930.41;5002775;28;20375;-63
2023/06/06 11:28:35;;;;;;;;;;;;;;;-144.99;58.48;51914.09;4996184;28;19965;-63
2023/06/06 11:31:02;;;;;;;;;;;;;;;-144.99;58.32;51912.06;5002957;28;19954;-63
2023/06/06 11:33:33;;;;;;;;;;;;;;;-144.99;57.92;51897.81;5001750;28;20442;-62
2023/06/06 11:36:01;;;;;;;;;;;;;;;-144.99;57.52;51903.91;5001682;28;19944;-63
2023/06/06 11:38:28;;;;;;;;;;;;;;;-144.99;57.36;51901.88;4997524;28;19970;-63
2023/06/06 11:40:55;;;;;;;;;;;;;;;-144.99;57.35;51903.91;5001497;28;20032;-62
2023/06/06 11:43:22;;;;;;;;;;;;;;;-144.99;56.81;51869.28;5001238;28;20391;-62
2023/06/06 11:46:02;;;;;;;;;;;;;;;-144.99;57.17;51885.56;5001587;28;19940;-63
2023/06/06 11:48:28;;;;;;;;;;;;;;;-144.99;57.01;51873.34;5000160;28;19965;-62
2023/06/06 11:50:55;;;;;;;;;;;;;;;-144.99;57.02;51877.44;4999010;28;20074;-62
2023/06/06 11:53:30;;;;;;;;;;;;;;;-144.99;56.69;51865.19;5001320;28;19965;-62
2023/06/06 11:55:57;;;;;;;;;;;;;;;-144.99;56.56;51879.47;5002060;28;19948;-62
2023/06/06 11:58:24;;;;;;;;;;;;;;;-144.99;56.16;51859.09;4999207;28;19974;-62
2023/06/06 12:00:55;;;;;;;;;;;;;;;-144.99;56.31;51877.44;5000283;28;19949;-62
2023/06/06 12:03:22;;;;;;;;;;;;;;;-144.99;56.54;51873.34;5002512;28;20551;-63
2023/06/06 12:05:58;;;;;;;;;;;;;;;-144.99;56.04;51869.28;5009208;28;19962;-63
2023/06/06 12:08:24;;;;;;;;;;;;;;;-144.99;55.84;51816.28;5001889;28;19975;-62
2023/06/06 12:10:53;;;;;;;;;;;;;;;-144.99;55.96;51895.75;4998205;28;19950;-62
2023/06/06 12:13:31;;;;;;;;;;;;;;;-144.99;56.06;51865.19;4997003;28;20459;-62
2023/06/06 12:15:57;;;;;;;;;;;;;;;-144.99;56.09;51877.44;5000744;28;19947;-63
2023/06/06 12:18:24;;;;;;;;;;;;;;;-144.99;56.18;51877.44;5002378;28;19967;-62
2023/06/06 12:20:51;;;;;;;;;;;;;;;-144.99;56.68;51893.72;5003302;28;19953;-62
2023/06/06 12:23:27;;;;;;;;;;;;;;;-144.99;57.72;51918.19;5007696;28;19943;-62
2023/06/06 12:25:57;;;;;;;;;;;;;;;-144.99;56.79;51934.50;4999785;28;19947;-62
2023/06/06 12:28:24;;;;;;;;;;;;;;;-144.99;56.81;51905.97;5008642;28;19955;-63
2023/06/06 12:30:52;;;;;;;;;;;;;;;-144.99;56.37;51875.38;4998361;28;20069;-63